West Elkton, Ohio
Current Conditions -  °F | °C
As of 10:55 AM on Friday 19 Dec 2014 (Local Time) from KMWO Reporting Station
Overcast Overcast  
Wind Chill: 32°   Ceiling: 2500
Heat Index: 32°   Visibility: 10mi
Dew Point: 21°   Wind: 3mph
Humidity: 63%   Direction: 110°ESE
Pressure: 30.32"   Gusts: NA
Location:  39.59°N, 84.55°W
Report Text: KMWO 191555Z AUTO 11003KT 10SM OVC025 00/M06 A3032 RMK AO2 T00001063
Loading
Personal Weather Stations






























Interactive Weather Map New forecast layout! Learn more

10-Day Weather Forecast

Advertisements
Track Severe Weather on mobile